Time;durP1;ratioP1;P1;durP2;ratioP2;P2;SDS_P1;SDS_P2;PMS_P1;PMS_P2;Temp;Humidity;BMP_temperature;BMP_pressure;BME280_temperature;BME280_humidity;BME280_pressure;Samples;Min_cycle;Max_cycle;Signal;HPM_P1;HPM_P2
2023/06/02 00:01:01;;;;;;;16.05;2.92;;;;;;;11.82;100.00;102231.88;5074110;28;20020;-46
2023/06/02 00:03:31;;;;;;;15.93;3.50;;;;;;;11.80;100.00;102230.34;5073230;28;20394;-46
2023/06/02 00:06:00;;;;;;;10.65;3.40;;;;;;;11.84;100.00;102224.44;5074257;28;20020;-47
2023/06/02 00:08:26;;;;;;;14.52;3.45;;;;;;;11.77;100.00;102227.91;5074297;28;20478;-47
2023/06/02 00:10:52;;;;;;;12.00;2.83;;;;;;;11.75;100.00;102229.94;5074019;28;20470;-46
2023/06/02 00:13:17;;;;;;;16.95;3.00;;;;;;;11.69;100.00;102236.81;5072744;28;20024;-48
2023/06/02 00:15:43;;;;;;;9.15;2.78;;;;;;;11.65;100.00;102233.56;5073928;28;20020;-50
2023/06/02 00:18:08;;;;;;;14.82;3.15;;;;;;;11.64;100.00;102231.03;5072912;28;20050;-46
2023/06/02 00:20:34;;;;;;;11.20;2.55;;;;;;;11.59;100.00;102226.09;5072113;28;20083;-47
2023/06/02 00:23:00;;;;;;;14.68;2.97;;;;;;;11.55;100.00;102230.09;5073319;28;20164;-45
2023/06/02 00:25:27;;;;;;;15.43;2.80;;;;;;;11.54;100.00;102223.03;5085161;28;20016;-46
2023/06/02 00:27:52;;;;;;;22.42;3.28;;;;;;;11.47;100.00;102232.72;5092639;28;20123;-45
2023/06/02 00:30:18;;;;;;;14.00;2.53;;;;;;;11.47;100.00;102230.03;5089127;28;20103;-44
2023/06/02 00:32:43;;;;;;;16.73;3.35;;;;;;;11.53;100.00;102232.13;5084950;28;20062;-46
2023/06/02 00:35:08;;;;;;;10.18;2.42;;;;;;;11.51;100.00;102228.72;5079883;28;20024;-49
2023/06/02 00:37:34;;;;;;;13.75;2.92;;;;;;;11.51;100.00;102223.34;5075403;28;20482;-48
2023/06/02 00:39:59;;;;;;;10.50;2.78;;;;;;;11.46;100.00;102225.66;5085158;28;20403;-44
2023/06/02 00:42:24;;;;;;;10.55;2.40;;;;;;;11.41;100.00;102228.78;5079148;28;20552;-44
2023/06/02 00:44:50;;;;;;;13.63;2.42;;;;;;;11.40;100.00;102220.84;5076863;28;20100;-46
2023/06/02 00:47:15;;;;;;;13.88;2.83;;;;;;;11.45;100.00;102225.78;5090374;28;20082;-44
2023/06/02 00:49:41;;;;;;;8.88;2.45;;;;;;;11.46;100.00;102208.63;5076344;28;20052;-47
2023/06/02 00:52:07;;;;;;;10.57;2.47;;;;;;;11.51;100.00;102220.63;5076678;28;20029;-47
2023/06/02 00:54:32;;;;;;;14.63;3.22;;;;;;;11.54;100.00;102217.63;5082838;28;20020;-50
2023/06/02 00:56:58;;;;;;;13.45;2.45;;;;;;;11.51;100.00;102217.94;5073256;28;20142;-45
2023/06/02 00:59:23;;;;;;;9.50;2.42;;;;;;;11.54;100.00;102217.63;5089900;28;20020;-48
2023/06/02 01:01:50;;;;;;;18.58;2.90;;;;;;;11.51;100.00;102226.03;5083651;28;20181;-46
2023/06/02 01:04:19;;;;;;;12.38;2.75;;;;;;;11.49;100.00;102225.31;5085075;28;20044;-46
2023/06/02 01:06:48;;;;;;;12.90;2.50;;;;;;;11.50;100.00;102223.47;5083546;28;20460;-46
2023/06/02 01:09:16;;;;;;;8.95;2.42;;;;;;;11.49;100.00;102229.88;5086807;28;20033;-46
2023/06/02 01:11:43;;;;;;;10.23;2.97;;;;;;;11.50;100.00;102231.56;5080555;28;20058;-45
2023/06/02 01:14:09;;;;;;;18.15;2.90;;;;;;;11.50;100.00;102237.78;5093644;28;20063;-45
2023/06/02 01:16:35;;;;;;;10.38;2.88;;;;;;;11.49;100.00;102236.13;5078112;28;20251;-47
2023/06/02 01:19:01;;;;;;;12.57;3.40;;;;;;;11.44;100.00;102233.03;5081205;28;20035;-46
2023/06/02 01:21:30;;;;;;;15.43;3.22;;;;;;;11.37;100.00;102227.41;5087784;28;20037;-47
2023/06/02 01:23:57;;;;;;;15.05;3.80;;;;;;;11.34;100.00;102232.25;5091182;28;20056;-46
2023/06/02 01:26:23;;;;;;;10.38;3.17;;;;;;;11.36;100.00;102224.88;5093927;28;20020;-46
2023/06/02 01:28:49;;;;;;;11.95;3.65;;;;;;;11.29;100.00;102229.16;5078740;28;20067;-47
2023/06/02 01:31:17;;;;;;;10.68;2.78;;;;;;;11.28;100.00;102227.47;5089423;28;20078;-47
2023/06/02 01:33:47;;;;;;;16.88;3.60;;;;;;;11.21;100.00;102225.38;5078082;28;20122;-49
2023/06/02 01:36:13;;;;;;;13.52;2.63;;;;;;;11.23;100.00;102225.22;5081411;28;20381;-47
2023/06/02 01:38:40;;;;;;;9.55;2.33;;;;;;;11.23;100.00;102221.69;5086953;28;20032;-46
2023/06/02 01:41:06;;;;;;;12.02;2.80;;;;;;;11.19;100.00;102216.63;5072824;28;20115;-47
2023/06/02 01:43:33;;;;;;;12.98;3.45;;;;;;;11.25;100.00;102212.47;5076539;28;20031;-45
2023/06/02 01:45:59;;;;;;;10.32;2.63;;;;;;;11.27;100.00;102218.56;5074594;28;20148;-46
2023/06/02 01:48:28;;;;;;;13.38;2.83;;;;;;;11.27;100.00;102226.63;5085295;28;20078;-45
2023/06/02 01:50:53;;;;;;;15.07;2.97;;;;;;;11.24;100.00;102218.84;5081922;28;20446;-45
2023/06/02 01:53:19;;;;;;;15.35;2.70;;;;;;;11.27;100.00;102215.84;5074055;28;20064;-45
2023/06/02 01:55:47;;;;;;;17.00;3.15;;;;;;;11.27;100.00;102225.75;5073506;28;20074;-45
2023/06/02 01:58:12;;;;;;;10.47;2.23;;;;;;;11.24;100.00;102220.69;5079464;28;20043;-47
2023/06/02 02:00:37;;;;;;;10.68;2.58;;;;;;;11.21;100.00;102228.06;5085067;28;20656;-47
2023/06/02 02:03:04;;;;;;;14.35;2.53;;;;;;;11.18;100.00;102223.00;5077167;28;20031;-44
2023/06/02 02:05:30;;;;;;;10.65;2.28;;;;;;;11.15;100.00;102215.22;5076790;28;20056;-48
2023/06/02 02:07:55;;;;;;;13.25;2.78;;;;;;;11.16;100.00;102222.31;5087059;28;20048;-46
2023/06/02 02:10:20;;;;;;;15.55;3.22;;;;;;;11.19;100.00;102215.78;5070673;28;20157;-44
2023/06/02 02:12:46;;;;;;;16.90;2.28;;;;;;;11.17;100.00;102226.69;5079637;28;20389;-44
2023/06/02 02:15:11;;;;;;;11.98;2.63;;;;;;;11.19;100.00;102223.84;5076900;28;20040;-48
2023/06/02 02:17:44;;;;;;;14.82;2.60;;;;;;;11.17;100.00;102229.38;5088063;28;20032;-46
2023/06/02 02:20:11;;;;;;;9.27;2.53;;;;;;;11.13;100.00;102219.91;5066589;28;20051;-46
2023/06/02 02:22:36;;;;;;;8.15;2.13;;;;;;;11.11;100.00;102221.94;5083068;28;20086;-44
2023/06/02 02:25:02;;;;;;;9.93;2.42;;;;;;;11.04;100.00;102223.53;5088395;28;20028;-46
2023/06/02 02:27:28;;;;;;;13.10;2.75;;;;;;;11.02;100.00;102230.91;5083951;28;20044;-44
2023/06/02 02:29:53;;;;;;;12.75;2.28;;;;;;;11.03;100.00;102219.13;5076714;28;20025;-45
2023/06/02 02:32:18;;;;;;;12.63;2.50;;;;;;;10.98;100.00;102222.28;5078263;28;20028;-45
2023/06/02 02:34:46;;;;;;;12.93;2.58;;;;;;;11.03;100.00;102215.56;5077279;28;20028;-46
2023/06/02 02:37:12;;;;;;;10.10;2.70;;;;;;;10.99;100.00;102206.97;5072300;28;20115;-44
2023/06/02 02:39:37;;;;;;;6.95;2.67;;;;;;;10.98;100.00;102211.50;5091671;28;20627;-49
2023/06/02 02:42:03;;;;;;;10.23;2.53;;;;;;;11.01;100.00;102213.06;5091575;28;20523;-44
2023/06/02 02:44:28;;;;;;;12.93;2.80;;;;;;;11.04;100.00;102210.06;5090081;28;20093;-50
2023/06/02 02:46:54;;;;;;;10.75;2.97;;;;;;;11.00;100.00;102211.34;5091532;28;20055;-45
2023/06/02 02:49:19;;;;;;;13.15;2.90;;;;;;;10.96;100.00;102213.50;5090762;28;20277;-45
2023/06/02 02:51:45;;;;;;;15.55;3.22;;;;;;;10.98;100.00;102202.59;5069966;28;20075;-47
2023/06/02 02:54:10;;;;;;;13.20;2.40;;;;;;;10.93;100.00;102202.19;5071477;28;20109;-46
2023/06/02 02:56:36;;;;;;;9.32;2.97;;;;;;;10.88;100.00;102210.72;5071842;28;20056;-44
2023/06/02 02:59:02;;;;;;;18.45;3.60;;;;;;;10.88;100.00;102205.31;5071748;28;20037;-47
2023/06/02 03:01:29;;;;;;;11.60;2.88;;;;;;;10.91;100.00;102205.03;5069991;28;20024;-44
2023/06/02 03:03:56;;;;;;;15.40;2.97;;;;;;;10.93;100.00;102202.19;5073485;28;20016;-47
2023/06/02 03:06:29;;;;;;;22.10;3.17;;;;;;;10.90;100.00;102205.16;5085177;28;20568;-49
2023/06/02 03:08:54;;;;;;;11.43;2.72;;;;;;;10.92;100.00;102205.84;5079620;28;20029;-48
2023/06/02 03:11:21;;;;;;;8.90;2.60;;;;;;;10.87;100.00;102205.47;5070972;28;20548;-45
2023/06/02 03:13:46;;;;;;;8.75;2.15;;;;;;;10.90;100.00;102207.84;5077412;28;20032;-45
2023/06/02 03:16:13;;;;;;;10.73;2.53;;;;;;;10.90;100.00;102197.94;5070950;28;20116;-42
2023/06/02 03:18:38;;;;;;;16.00;2.83;;;;;;;10.91;100.00;102210.41;5074723;28;20142;-48
2023/06/02 03:21:05;;;;;;;13.75;2.58;;;;;;;10.90;100.00;102207.84;5081070;28;20029;-47
2023/06/02 03:23:31;;;;;;;5.57;2.28;;;;;;;10.92;100.00;102195.94;5071038;28;20040;-48
2023/06/02 03:25:56;;;;;;;10.07;2.65;;;;;;;10.96;100.00;102207.28;5082423;28;20055;-46
2023/06/02 03:28:21;;;;;;;11.85;3.40;;;;;;;10.95;100.00;102200.16;5072829;28;20028;-44
2023/06/02 03:30:47;;;;;;;16.63;2.78;;;;;;;10.96;100.00;102200.03;5073683;28;20382;-46
2023/06/02 03:33:12;;;;;;;12.27;2.60;;;;;;;10.98;100.00;102202.59;5080721;28;20036;-47
2023/06/02 03:35:37;;;;;;;15.18;2.85;;;;;;;10.97;100.00;102199.00;5081688;28;20115;-47
2023/06/02 03:38:06;;;;;;;25.33;3.20;;;;;;;10.94;100.00;102199.31;5071981;28;20035;-46
2023/06/02 03:40:33;;;;;;;13.00;2.65;;;;;;;10.93;100.00;102202.19;5076175;28;20060;-46
2023/06/02 03:42:58;;;;;;;9.63;2.00;;;;;;;10.93;100.00;102199.50;5090701;28;20066;-47
2023/06/02 03:45:24;;;;;;;9.50;2.33;;;;;;;10.87;100.00;102197.38;5090632;28;20052;-47
2023/06/02 03:47:49;;;;;;;15.80;2.47;;;;;;;10.86;100.00;102195.69;5089181;28;20081;-48
2023/06/02 03:50:15;;;;;;;10.52;2.83;;;;;;;10.89;100.00;102200.78;5090551;28;20048;-50
2023/06/02 03:52:40;;;;;;;12.00;2.45;;;;;;;10.87;100.00;102205.47;5085121;28;20033;-46
2023/06/02 03:55:06;;;;;;;9.63;2.50;;;;;;;10.91;100.00;102204.19;5070646;28;20150;-47
2023/06/02 03:57:31;;;;;;;9.25;2.10;;;;;;;10.92;100.00;102208.56;5068881;28;20049;-46
2023/06/02 03:59:57;;;;;;;13.20;2.60;;;;;;;10.86;100.00;102211.84;5069830;28;20031;-47
2023/06/02 04:02:22;;;;;;;11.52;2.47;;;;;;;10.85;100.00;102205.63;5069177;28;20024;-45
2023/06/02 04:04:47;;;;;;;12.63;2.83;;;;;;;10.86;100.00;102206.47;5068317;28;20122;-48
2023/06/02 04:07:13;;;;;;;12.00;2.70;;;;;;;10.91;100.00;102204.19;5067427;28;20421;-48
2023/06/02 04:09:38;;;;;;;8.63;2.42;;;;;;;10.90;100.00;102214.09;5068723;28;20039;-45
2023/06/02 04:12:04;;;;;;;11.35;2.50;;;;;;;10.90;100.00;102203.34;5069798;28;20394;-45
2023/06/02 04:14:30;;;;;;;10.23;2.70;;;;;;;10.94;100.00;102220.03;5068606;28;20074;-45
2023/06/02 04:16:56;;;;;;;12.23;2.70;;;;;;;10.97;100.00;102219.72;5082287;28;20107;-45
2023/06/02 04:19:21;;;;;;;10.73;2.55;;;;;;;10.93;100.00;102211.09;5090063;28;20032;-47
2023/06/02 04:21:47;;;;;;;7.55;2.50;;;;;;;10.96;100.00;102207.28;5088536;28;20476;-44
2023/06/02 04:24:12;;;;;;;12.05;2.83;;;;;;;10.96;100.00;102209.97;5074547;28;20493;-45
2023/06/02 04:26:37;;;;;;;15.15;3.00;;;;;;;10.94;100.00;102209.25;5081375;28;20028;-43
2023/06/02 04:29:03;;;;;;;9.52;2.40;;;;;;;11.02;100.00;102212.03;5077076;28;20042;-45
2023/06/02 04:31:43;;;;;;;12.93;2.40;;;;;;;11.06;100.00;102208.06;5084854;28;20020;-45
2023/06/02 04:34:12;;;;;;;8.70;2.15;;;;;;;11.10;100.00;102216.66;5090604;28;20043;-47
2023/06/02 04:36:37;;;;;;;15.10;2.45;;;;;;;11.12;100.00;102210.13;5056599;28;20041;-45
2023/06/02 04:39:08;;;;;;;11.68;2.30;;;;;;;11.15;100.00;102217.91;5081486;28;20503;-49
2023/06/02 04:41:37;;;;;;;12.43;2.63;;;;;;;11.08;100.00;102205.19;5084927;28;20036;-45
2023/06/02 04:44:03;;;;;;;7.30;2.47;;;;;;;11.02;100.00;102206.66;5065205;28;20801;-45
2023/06/02 04:46:28;;;;;;;17.40;2.30;;;;;;;11.07;100.00;102215.13;5069553;28;20031;-44
2023/06/02 04:48:54;;;;;;;10.90;2.83;;;;;;;11.04;100.00;102214.59;5077150;28;20024;-47
2023/06/02 04:51:26;;;;;;;8.55;2.03;;;;;;;11.11;100.00;102216.53;5061720;28;20032;-47
2023/06/02 04:53:51;;;;;;;12.80;2.30;;;;;;;11.14;100.00;102216.22;5082271;28;20134;-49
2023/06/02 04:56:16;;;;;;;14.27;2.20;;;;;;;11.23;100.00;102221.69;5089644;28;20429;-46
2023/06/02 04:58:42;;;;;;;18.27;3.03;;;;;;;11.26;100.00;102219.53;5082988;28;20051;-47
2023/06/02 05:01:07;;;;;;;15.30;2.58;;;;;;;11.25;100.00;102219.69;5075008;28;20024;-47
2023/06/02 05:03:32;;;;;;;22.75;2.72;;;;;;;11.28;100.00;102222.09;5084943;28;20439;-46
2023/06/02 05:05:58;;;;;;;10.63;2.30;;;;;;;11.29;100.00;102227.31;5080303;28;20031;-43
2023/06/02 05:08:23;;;;;;;9.18;2.80;;;;;;;11.29;100.00;102223.78;5077543;28;20032;-44
2023/06/02 05:10:49;;;;;;;12.27;2.83;;;;;;;11.28;100.00;102227.47;5072005;28;20253;-46
2023/06/02 05:13:16;;;;;;;11.00;2.70;;;;;;;11.27;100.00;102221.25;5073320;28;20020;-46
2023/06/02 05:15:41;;;;;;;14.43;3.13;;;;;;;11.29;100.00;102223.78;5073776;28;20116;-46
2023/06/02 05:18:07;;;;;;;16.58;2.72;;;;;;;11.27;100.00;102223.06;5077428;28;20365;-47
2023/06/02 05:20:32;;;;;;;8.98;1.98;;;;;;;11.29;100.00;102223.78;5084817;28;20104;-46
2023/06/02 05:22:57;;;;;;;18.80;2.50;;;;;;;11.27;100.00;102225.75;5072650;28;20024;-47
2023/06/02 05:25:23;;;;;;;11.63;2.40;;;;;;;11.27;100.00;102228.47;5084504;28;20031;-48
2023/06/02 05:27:51;;;;;;;10.18;2.10;;;;;;;11.24;100.00;102226.91;5091633;28;20024;-44
2023/06/02 05:30:16;;;;;;;28.63;3.67;;;;;;;11.23;100.00;102232.47;5073452;28;20029;-48
2023/06/02 05:32:41;;;;;;;12.95;2.75;;;;;;;11.28;100.00;102227.47;5071349;28;20086;-47
2023/06/02 05:35:07;;;;;;;20.17;2.65;;;;;;;11.37;100.00;102229.25;5072624;28;20056;-47
2023/06/02 05:37:33;;;;;;;8.82;2.50;;;;;;;11.39;100.00;102232.63;5068384;28;20039;-45
2023/06/02 05:39:59;;;;;;;11.15;3.17;;;;;;;11.34;100.00;102232.25;5077226;28;20063;-45
2023/06/02 05:42:25;;;;;;;12.95;2.65;;;;;;;11.32;100.00;102239.63;5078239;28;20123;-47
2023/06/02 05:44:53;;;;;;;14.45;2.65;;;;;;;11.34;100.00;102235.78;5083436;28;20085;-49
2023/06/02 05:47:20;;;;;;;17.65;3.13;;;;;;;11.24;100.00;102243.09;5072052;28;20055;-47
2023/06/02 05:49:45;;;;;;;13.57;2.67;;;;;;;11.20;100.00;102245.25;5080709;28;20145;-47
2023/06/02 05:52:11;;;;;;;13.60;3.08;;;;;;;11.21;100.00;102238.00;5092113;28;20110;-46
2023/06/02 05:54:36;;;;;;;12.07;2.42;;;;;;;11.31;100.00;102237.94;5089613;28;20130;-47
2023/06/02 05:57:02;;;;;;;16.20;3.20;;;;;;;11.37;100.00;102231.94;5083163;28;20054;-46
2023/06/02 05:59:29;;;;;;;11.80;2.72;;;;;;;11.40;100.00;102231.63;5088200;28;20369;-48
2023/06/02 06:01:54;;;;;;;12.05;2.47;;;;;;;11.48;100.00;102231.72;5086872;28;20032;-47
2023/06/02 06:04:20;;;;;;;17.95;2.80;;;;;;;11.52;100.00;102230.41;5092419;28;20489;-46
2023/06/02 06:06:45;;;;;;;19.55;3.00;;;;;;;11.59;100.00;102226.09;5091162;28;20024;-45
2023/06/02 06:09:10;;;;;;;14.43;3.30;;;;;;;11.58;100.00;102228.94;5090521;28;20020;-47
2023/06/02 06:11:36;;;;;;;14.90;3.03;;;;;;;11.58;100.00;102235.16;5086493;28;20055;-45
2023/06/02 06:14:02;;;;;;;13.95;3.20;;;;;;;11.58;100.00;102229.78;5072156;28;20123;-44
2023/06/02 06:16:28;;;;;;;12.65;2.97;;;;;;;11.68;100.00;102227.00;5071938;28;20059;-48
2023/06/02 06:18:55;;;;;;;11.63;2.78;;;;;;;11.80;100.00;102227.63;5071412;28;20020;-45
2023/06/02 06:21:20;;;;;;;16.35;2.85;;;;;;;11.82;100.00;102228.31;5078295;28;20133;-47
2023/06/02 06:23:45;;;;;;;10.88;2.40;;;;;;;11.84;100.00;102239.78;5072814;28;20590;-47
2023/06/02 06:26:11;;;;;;;17.10;3.22;;;;;;;11.91;100.00;102235.50;5075253;28;20047;-45
2023/06/02 06:28:36;;;;;;;14.70;3.28;;;;;;;11.97;100.00;102239.41;5070900;28;20028;-47
2023/06/02 06:31:04;;;;;;;12.68;2.40;;;;;;;12.01;100.00;102240.81;5071239;28;20107;-46
2023/06/02 06:33:30;;;;;;;15.45;3.35;;;;;;;12.02;100.00;102237.94;5069637;28;20016;-44
2023/06/02 06:35:55;;;;;;;13.70;2.75;;;;;;;12.03;100.00;102244.19;5074336;28;20021;-47
2023/06/02 06:38:21;;;;;;;12.40;3.25;;;;;;;12.04;100.00;102240.50;5077195;28;20055;-47
2023/06/02 06:40:46;;;;;;;16.05;3.20;;;;;;;12.12;100.00;102245.09;5080185;28;20052;-46
2023/06/02 06:43:15;;;;;;;15.27;2.70;;;;;;;12.15;100.00;102236.69;5082317;28;20016;-47
2023/06/02 06:45:41;;;;;;;11.95;2.90;;;;;;;12.24;100.00;102235.72;5082408;28;20029;-50
2023/06/02 06:48:06;;;;;;;9.93;2.65;;;;;;;12.29;100.00;102236.09;5079552;28;20082;-43
2023/06/02 06:50:32;;;;;;;15.02;2.55;;;;;;;12.38;100.00;102245.94;5082864;28;20028;-47
2023/06/02 06:52:57;;;;;;;13.27;2.42;;;;;;;12.41;100.00;102240.22;5080236;28;20378;-46
2023/06/02 06:55:22;;;;;;;16.70;2.60;;;;;;;12.46;100.00;102240.59;5079121;28;20098;-45
2023/06/02 06:57:48;;;;;;;12.77;2.72;;;;;;;12.42;100.00;102244.59;5077330;28;20135;-47
2023/06/02 07:00:13;;;;;;;10.48;2.88;;;;;;;12.48;100.00;102244.00;5079203;28;20016;-45
2023/06/02 07:02:39;;;;;;;15.55;2.70;;;;;;;12.50;100.00;102252.75;5079183;28;20024;-46
2023/06/02 07:05:04;;;;;;;12.20;2.65;;;;;;;12.53;100.00;102246.19;5079791;28;20024;-44
2023/06/02 07:07:30;;;;;;;18.05;2.58;;;;;;;12.55;100.00;102240.63;5081444;28;20023;-45
2023/06/02 07:09:56;;;;;;;11.52;2.60;;;;;;;12.45;100.00;102238.91;5079131;28;20029;-43
2023/06/02 07:12:21;;;;;;;13.95;2.83;;;;;;;12.40;100.00;102235.84;5078078;28;20021;-45
2023/06/02 07:14:46;;;;;;;16.75;2.70;;;;;;;12.43;100.00;102240.91;5075585;28;20149;-44
2023/06/02 07:17:12;;;;;;;12.60;3.25;;;;;;;12.47;100.00;102244.97;5072558;28;20024;-47
2023/06/02 07:19:37;;;;;;;10.55;2.72;;;;;;;12.51;100.00;102238.25;5069187;28;20256;-45
2023/06/02 07:22:03;;;;;;;18.77;3.45;;;;;;;12.40;100.00;102249.34;5069941;28;20095;-46
2023/06/02 07:24:28;;;;;;;10.23;2.70;;;;;;;12.12;100.00;102250.50;5083891;28;20049;-48
2023/06/02 07:26:55;;;;;;;19.95;3.28;;;;;;;11.92;100.00;102245.28;5079671;28;20538;-48
2023/06/02 07:29:20;;;;;;;12.00;3.05;;;;;;;11.89;100.00;102244.75;5079808;28;20401;-47
2023/06/02 07:31:45;;;;;;;14.32;2.60;;;;;;;11.96;100.00;102243.97;5079431;28;20035;-48
2023/06/02 07:34:11;;;;;;;13.77;2.97;;;;;;;12.05;100.00;102243.00;5078036;28;20024;-51
2023/06/02 07:36:38;;;;;;;16.23;2.50;;;;;;;12.25;100.00;102234.75;5076618;28;20371;-48
2023/06/02 07:39:03;;;;;;;13.93;2.80;;;;;;;12.39;100.00;102239.53;5079339;28;20035;-47
2023/06/02 07:41:29;;;;;;;13.80;2.85;;;;;;;12.56;100.00;102240.50;5077252;28;20028;-47
2023/06/02 07:43:54;;;;;;;11.40;2.05;;;;;;;12.58;100.00;102245.72;5080886;28;20024;-50
2023/06/02 07:46:19;;;;;;;18.50;2.50;;;;;;;12.76;100.00;102246.47;5075899;28;20397;-46
2023/06/02 07:48:45;;;;;;;18.25;2.95;;;;;;;12.94;100.00;102244.53;5079983;28;20020;-49
2023/06/02 07:51:10;;;;;;;13.05;2.50;;;;;;;13.15;100.00;102243.25;5077776;28;20029;-45
2023/06/02 07:53:37;;;;;;;10.57;2.20;;;;;;;13.15;100.00;102244.09;5078035;28;20028;-46
2023/06/02 07:56:02;;;;;;;13.80;2.72;;;;;;;13.13;100.00;102238.00;5080306;28;20024;-49
2023/06/02 07:58:28;;;;;;;14.13;2.47;;;;;;;13.29;100.00;102241.78;5082038;28;20063;-48
2023/06/02 08:00:53;;;;;;;16.45;3.38;;;;;;;13.36;100.00;102238.25;5082210;28;20089;-48
2023/06/02 08:03:19;;;;;;;15.88;3.17;;;;;;;13.46;100.00;102248.94;5083952;28;20020;-46
2023/06/02 08:05:45;;;;;;;17.33;2.38;;;;;;;13.49;100.00;102245.06;5082514;28;20039;-48
2023/06/02 08:08:11;;;;;;;13.45;2.60;;;;;;;13.60;100.00;102244.72;5079722;28;20051;-48
2023/06/02 08:10:36;;;;;;;12.77;2.70;;;;;;;13.96;100.00;102244.41;5080559;28;20474;-47
2023/06/02 08:13:01;;;;;;;11.27;2.50;;;;;;;14.14;100.00;102241.47;5084119;28;20032;-49
2023/06/02 08:15:27;;;;;;;13.13;2.13;;;;;;;14.31;100.00;102236.91;5083069;28;20172;-46
2023/06/02 08:17:52;;;;;;;22.77;4.55;;;;;;;14.58;100.00;102239.22;5076753;28;20115;-48
2023/06/02 08:20:17;;;;;;;16.33;2.40;;;;;;;14.92;99.90;102235.38;5066016;28;20355;-48
2023/06/02 08:22:44;;;;;;;17.85;2.72;;;;;;;15.18;98.09;102239.66;5081295;28;20059;-47
2023/06/02 08:25:10;;;;;;;15.07;2.80;;;;;;;15.83;96.19;102231.06;5080243;28;20032;-47
2023/06/02 08:27:36;;;;;;;17.52;3.60;;;;;;;16.06;91.26;102232.91;5080923;28;20138;-48
2023/06/02 08:30:04;;;;;;;11.05;2.38;;;;;;;15.70;92.05;102233.56;5063300;28;20033;-46
2023/06/02 08:32:29;;;;;;;10.23;3.15;;;;;;;15.58;94.24;102233.09;5079241;28;20047;-48
2023/06/02 08:35:00;;;;;;;16.08;2.30;;;;;;;15.57;94.37;102228.72;5077455;28;20463;-50
2023/06/02 08:37:26;;;;;;;9.70;2.00;;;;;;;15.80;93.05;102224.16;5078798;28;20044;-49
2023/06/02 08:39:51;;;;;;;14.32;2.47;;;;;;;15.90;93.59;102226.59;5082110;28;20020;-49
2023/06/02 08:42:18;;;;;;;18.48;2.78;;;;;;;15.87;92.42;102221.53;5082840;28;20028;-48
2023/06/02 08:44:47;;;;;;;15.17;2.60;;;;;;;15.83;92.17;102225.66;5085299;28;20048;-48
2023/06/02 08:47:13;;;;;;;13.82;2.88;;;;;;;15.55;93.78;102231.59;5082032;28;20660;-47
2023/06/02 08:49:43;;;;;;;13.88;2.75;;;;;;;15.46;95.45;102231.84;5081337;28;20838;-49
2023/06/02 08:52:25;;;;;;;10.32;2.35;;;;;;;15.35;95.97;102227.69;5081964;28;20050;-47
2023/06/02 08:54:51;;;;;;;14.80;2.55;;;;;;;15.29;96.42;102226.50;5080589;28;20040;-48
2023/06/02 08:57:20;;;;;;;10.27;2.53;;;;;;;15.23;96.76;102224.53;5080465;28;20406;-49
2023/06/02 08:59:46;;;;;;;13.25;2.92;;;;;;;15.27;97.52;102225.00;5072782;28;20086;-48
2023/06/02 09:02:11;;;;;;;15.73;2.35;;;;;;;15.20;97.50;102216.75;5072347;28;20021;-52
2023/06/02 09:04:37;;;;;;;10.48;2.47;;;;;;;15.21;99.25;102220.31;5071026;28;20039;-49
2023/06/02 09:07:11;;;;;;;10.60;2.38;;;;;;;15.18;99.24;102232.34;5072626;28;20036;-47
2023/06/02 09:09:44;;;;;;;12.80;2.45;;;;;;;15.09;100.00;102230.72;5071869;28;20024;-48
2023/06/02 09:12:09;;;;;;;12.20;2.83;;;;;;;15.01;100.00;102231.59;5070517;28;20221;-50
2023/06/02 09:14:35;;;;;;;11.57;2.60;;;;;;;15.03;100.00;102226.81;5071048;28;20793;-47
2023/06/02 09:17:01;;;;;;;9.85;2.42;;;;;;;15.04;100.00;102222.28;5072845;28;20024;-48
2023/06/02 09:19:26;;;;;;;10.93;2.55;;;;;;;15.05;100.00;102229.38;5072463;28;20031;-51
2023/06/02 09:21:51;;;;;;;14.98;2.75;;;;;;;15.12;100.00;102230.38;5072369;28;20414;-51
2023/06/02 09:24:33;;;;;;;11.30;2.75;;;;;;;15.00;100.00;102232.59;5072326;28;20039;-47
2023/06/02 09:26:59;;;;;;;18.77;3.67;;;;;;;14.76;100.00;102228.16;5072334;28;20026;-50
2023/06/02 09:29:24;;;;;;;13.82;3.10;;;;;;;14.79;100.00;102230.50;5070952;28;20111;-47
2023/06/02 09:31:55;;;;;;;22.67;5.38;;;;;;;14.68;100.00;102230.91;5070793;28;20110;-48
2023/06/02 09:34:22;;;;;;;17.40;3.00;;;;;;;14.67;100.00;102232.75;5072505;28;20056;-47
2023/06/02 09:36:52;;;;;;;15.50;2.80;;;;;;;14.67;100.00;102232.75;5072628;28;20052;-49
2023/06/02 09:39:43;;;;;;;16.20;2.95;;;;;;;14.73;100.00;102230.38;5071787;28;20267;-48
2023/06/02 09:42:13;;;;;;;15.80;2.50;;;;;;;14.81;100.00;102238.47;5072543;28;20103;-48
2023/06/02 09:44:40;;;;;;;11.25;2.50;;;;;;;14.93;100.00;102237.91;5072649;28;20386;-47
2023/06/02 09:47:22;;;;;;;16.20;2.88;;;;;;;14.87;100.00;102235.88;5072717;28;20028;-46
2023/06/02 09:49:48;;;;;;;15.73;2.95;;;;;;;14.81;100.00;102222.22;5073045;28;20032;-48
2023/06/02 09:52:17;;;;;;;16.20;3.03;;;;;;;14.71;100.00;102231.38;5073126;28;20024;-50
2023/06/02 09:54:47;;;;;;;17.52;2.80;;;;;;;14.68;100.00;102229.03;5072346;28;20047;-47
2023/06/02 09:57:15;;;;;;;17.67;2.50;;;;;;;14.73;100.00;102225.78;5072755;28;20178;-51
2023/06/02 09:59:40;;;;;;;15.40;2.88;;;;;;;14.80;100.00;102228.66;5073030;28;20032;-48
2023/06/02 10:02:10;;;;;;;12.68;2.33;;;;;;;14.75;100.00;102225.63;5072569;28;20039;-47
2023/06/02 10:04:36;;;;;;;18.73;2.58;;;;;;;14.79;100.00;102226.94;5070883;28;20037;-49
2023/06/02 10:07:13;;;;;;;22.80;3.08;;;;;;;14.91;100.00;102223.69;5071359;28;20039;-49
2023/06/02 10:10:20;;;;;;;11.48;2.70;;;;;;;15.00;100.00;102229.91;5071485;28;20035;-47
2023/06/02 10:13:13;;;;;;;13.82;2.70;;;;;;;15.07;100.00;102225.47;5071247;28;20503;-49
2023/06/02 10:15:44;;;;;;;17.65;2.83;;;;;;;15.14;100.00;102231.88;5072475;28;20380;-48
2023/06/02 10:18:12;;;;;;;17.58;3.00;;;;;;;15.11;100.00;102218.69;5070874;28;20021;-49
2023/06/02 10:20:56;;;;;;;12.95;2.40;;;;;;;15.23;100.00;102212.84;5071749;28;20044;-48
2023/06/02 10:23:46;;;;;;;16.38;2.55;;;;;;;15.23;100.00;102215.53;5071348;28;20039;-48
2023/06/02 10:26:39;;;;;;;11.50;3.03;;;;;;;15.33;100.00;102217.00;5070141;28;20428;-48
2023/06/02 10:29:05;;;;;;;11.05;2.35;;;;;;;15.45;100.00;102213.88;5070380;28;20116;-49
2023/06/02 10:31:31;;;;;;;12.70;2.80;;;;;;;15.59;100.00;102222.06;5071110;28;20550;-47
2023/06/02 10:33:59;;;;;;;13.20;2.78;;;;;;;15.61;100.00;102218.31;5071403;28;20032;-48
2023/06/02 10:36:24;;;;;;;;;;;;;;;15.56;100.00;102219.72;5070443;28;20025;-49
2023/06/02 10:38:50;;;;;;;14.13;3.38;;;;;;;15.56;100.00;102227.88;5071516;28;20439;-48
2023/06/02 10:41:21;;;;;;;14.18;2.40;;;;;;;15.61;100.00;102227.31;5070979;28;20387;-48
2023/06/02 10:44:18;;;;;;;14.00;2.75;;;;;;;15.81;100.00;102211.41;5071549;28;20470;-49
2023/06/02 10:46:44;;;;;;;14.75;2.88;;;;;;;15.82;100.00;102220.38;5070968;28;20029;-50
2023/06/02 10:49:47;;;;;;;8.80;2.45;;;;;;;16.01;100.00;102220.72;5070949;28;20032;-49
2023/06/02 10:52:13;;;;;;;20.42;4.18;;;;;;;16.11;100.00;102219.59;5070797;28;20458;-48
2023/06/02 10:54:38;;;;;;;21.02;3.70;;;;;;;16.23;100.00;102224.41;5070547;28;20078;-48
2023/06/02 10:57:04;;;;;;;18.75;2.70;;;;;;;16.31;100.00;102223.47;5070380;28;20177;-50
2023/06/02 10:59:31;;;;;;;17.40;2.60;;;;;;;16.41;100.00;102215.06;5070697;28;20056;-48
2023/06/02 11:01:56;;;;;;;13.45;3.63;;;;;;;16.46;100.00;102221.63;5070842;28;20024;-48
2023/06/02 11:04:34;;;;;;;16.52;2.92;;;;;;;16.40;100.00;102216.06;5069664;28;20024;-49
2023/06/02 11:07:25;;;;;;;13.32;2.90;;;;;;;16.40;100.00;102213.34;5070724;28;20031;-48
2023/06/02 11:10:03;;;;;;;14.68;2.72;;;;;;;16.42;100.00;102201.28;5070817;28;20082;-46
2023/06/02 11:12:51;;;;;;;15.30;2.42;;;;;;;16.67;100.00;102218.16;5069516;28;20079;-48